AirNav  
 
 1672 users online  

36TE NW Police Station Nr 5 Heliport
Houston, Texas, USA

GOING TO HOUSTON?


FAA INFORMATION EFFECTIVE 25 MARCH 2021

Location

FAA Identifier: 36TE
Lat/Long: 29-51-24.8130N 095-32-21.7920W
29-51.413550N 095-32.363200W
29.8568925,-95.5393867
(estimated)
Elevation: 101 ft. / 31 m (estimated)
Variation: 06E (1985)
From city: 1 mile N of HOUSTON, TX
Time zone: UTC -5 (UTC -6 during Standard Time)
Zip code: 77041

Heliport Operations

Heliport use: Private use. Permission required prior to landing
Activation date: 02/1971
Control tower: no
ARTCC: HOUSTON CENTER
FSS: MONTGOMERY COUNTY FLIGHT SERVICE STATION
Attendance: UNATNDD
Wind indicator: yes
Segmented circle: no
Lights: SS-SR

Heliport Communications

WX ASOS at DWH (12 nm N): PHONE 281-251-7853
WX ASOS at IAH (13 nm NE): PHONE 281-443-6397
WX ASOS at SGR (15 nm SW): 118.125 (281-242-7605)
WX ASOS at HOU (19 nm SE): PHONE 713-847-1462
WX AWOS-3 at TME (19 nm W): 119.525 (281-945-5451)

Nearby radio navigation aids

VOR radial/distance  VOR name  Freq  Var
IAHr234/11.7HUMBLE VORTAC116.6005E
TNVr126/37.4NAVASOTA VOR/DME115.9008E

Heliport Services

Airframe service: NONE
Powerplant service: NONE

Runway Information

Helipad H1

Dimensions: 45 x 45 ft. / 14 x 14 m
Surface: concrete
Runway edge lights: PERI
Latitude: 29-51.413500N
Longitude: 095-32.363167W
Elevation: 101.0 ft.
Traffic pattern: leftleft

Heliport Ownership and Management from official FAA records

Ownership: Publicly-owned
Owner: HOUSTON POLICE AIR SUPPORT DIVISION
8402 LARSON
HOUSTON, TX 77061
Phone (832) 395-1995
Manager: MJ NOVAK
8402 LARSON
HOUSTON, TX 77061
Phone (832) 395-1995

Additional Remarks

PRIVATE, POLICE ONLY.
FOR CD CTC HOUSTON ARTCC AT 281-230-5622.

Instrument Procedures

There are no published instrument procedures at 36TE.

Some nearby airports with instrument procedures:

KIWS - West Houston Airport (7 nm W)
KDWH - David Wayne Hooks Memorial Airport (12 nm N)
KIAH - George Bush Intcntl/Houston Airport (13 nm NE)
KSGR - Sugar Land Regional Airport (15 nm SW)
KHOU - William P Hobby Airport (19 nm SE)
KTME - HoustonExecutive Airport (19 nm W)
 
Loc | Ops | Rwys | IFR | FBO | Links
Com | Nav | Svcs | Stats | Notes
Area around 36TE (NW Police Station Nr 5 Heliport)
 
Road maps at: MapQuest Bing Google
 
Aerial photo
No photo
 
Sectional chart

 
Airport distance calculator
Flying to NW Police Station Nr 5 Heliport? Find the distance to fly.

From to 36TE

Sunrise and sunset
Times for 21-Apr-2021
 Local
(UTC-5)
 Zulu
(UTC)
Morning civil twilight06:2511:25
Sunrise06:5011:50
Sunset19:5200:52
Evening civil twilight20:1701:17

Current date and time
Zulu (UTC)  21-Apr-2021 17:23:46
Local (UTC-5)  21-Apr-2021 12:23:46
 
METAR
KIAH 
12nm NE 
211653Z 02012G16KT 10SM BKN065 BKN250 16/01 A3031 RMK AO2 SLP264 T01610006
KDWH 
13nm N 
211653Z 01010KT 10SM OVC060 15/01 A3032 RMK AO2 SLP265 T01500006
KSGR 
16nm S 
211653Z 04013G18KT 10SM FEW060 17/03 A3029 RMK AO2 SLP259 T01670028
KHOU 
19nm SE 
211653Z 02012G19KT 10SM FEW060 16/02 A3029 RMK AO2 SLP263 T01610017
KTME 
19nm W 
211655Z AUTO 01011G18KT 10SM BKN060 15/01 A3032 RMK AO2
KAXH 
21nm S 
211655Z AUTO 04009G16KT 10SM CLR 16/04 A3030 RMK AO2 T01580035
KEFD 
25nm SE 
211650Z 36010G19KT 10SM CLR 15/02 A3029
TAF
KIAH 
12nm NE 
211500Z 2115/2218 03015KT P6SM FEW050 FEW250 FM212200 04007KT P6SM FEW250 FM221100 08007KT P6SM BKN250 FM221600 11012KT P6SM BKN040
KSGR 
16nm S 
211120Z 2112/2212 03016KT P6SM FEW250 FM212000 03009KT P6SM FEW250 FM220600 06006KT P6SM SCT250
KHOU 
19nm SE 
211500Z 2115/2212 03015KT P6SM FEW250 FM212000 03009KT P6SM FEW250 FM220600 06007KT P6SM SCT250
NOTAMs
Click for the latest NOTAMs
NOTAMs are issued by the DoD/FAA and will open in a separate window not controlled by AirNav.

 

 
 

Would you like to see your business listed on this page?

 If your business provides an interesting product or service to pilots, flight crews, aircraft, or users of the NW Police Station Nr 5 Heliport, you should consider listing it here.  To start the listing process, click on the button below
 
Add a business
 

Other Pages about NW Police Station Nr 5 Heliport

Update a link
 
Copyright © AirNav, LLC. All rights reserved. Privacy Policy  Contact